Time;durP1;ratioP1;P1;durP2;ratioP2;P2;SDS_P1;SDS_P2;PMS_P1;PMS_P2;Temp;Humidity;BMP_temperature;BMP_pressure;BME280_temperature;BME280_humidity;BME280_pressure;Samples;Min_cycle;Max_cycle;Signal;HPM_P1;HPM_P2
2021/12/30 00:01:37;;;;;;;44.88;6.72;;;8.90;99.90;;;;;;5075265;28;20090;-60
2021/12/30 00:04:03;;;;;;;46.40;6.45;;;8.90;99.90;;;;;;5052412;28;20037;-60
2021/12/30 00:06:30;;;;;;;42.40;6.60;;;8.90;99.90;;;;;;5059550;28;20055;-60
2021/12/30 00:08:56;;;;;;;45.42;7.22;;;8.80;99.90;;;;;;5055115;28;20522;-61
2021/12/30 00:11:22;;;;;;;43.10;7.18;;;8.80;99.90;;;;;;5053950;28;20523;-60
2021/12/30 00:13:48;;;;;;;46.63;6.45;;;8.80;99.90;;;;;;5053210;28;20029;-60
2021/12/30 00:16:16;;;;;;;48.35;6.78;;;8.80;99.90;;;;;;5051417;28;20044;-60
2021/12/30 00:18:42;;;;;;;41.35;6.30;;;8.70;99.90;;;;;;5055009;28;20071;-58
2021/12/30 00:21:09;;;;;;;52.63;6.95;;;8.70;99.90;;;;;;5056665;28;20041;-61
2021/12/30 00:23:35;;;;;;;37.85;6.97;;;8.80;99.90;;;;;;5062779;28;20064;-61
2021/12/30 00:26:00;;;;;;;52.05;8.07;;;8.70;99.90;;;;;;5055006;28;20491;-61
2021/12/30 00:28:28;;;;;;;47.97;8.05;;;8.80;99.90;;;;;;5057594;28;20140;-59
2021/12/30 00:30:54;;;;;;;47.73;6.80;;;8.70;99.90;;;;;;5055229;28;20040;-59
2021/12/30 00:33:21;;;;;;;49.58;6.57;;;8.60;99.90;;;;;;5055715;28;20044;-60
2021/12/30 00:35:47;;;;;;;45.75;7.88;;;8.60;99.90;;;;;;5055126;28;20551;-60
2021/12/30 00:38:13;;;;;;;47.75;7.43;;;8.60;99.90;;;;;;5057131;28;20044;-58
2021/12/30 00:40:40;;;;;;;49.80;8.00;;;8.70;99.90;;;;;;5058987;28;20494;-60
2021/12/30 00:43:06;;;;;;;56.60;8.10;;;8.60;99.90;;;;;;5056112;28;20129;-60
2021/12/30 00:45:34;;;;;;;45.78;8.48;;;8.60;99.90;;;;;;5056968;28;20052;-60
2021/12/30 00:47:59;;;;;;;52.97;6.97;;;8.50;99.90;;;;;;5056607;28;20040;-60
2021/12/30 00:50:26;;;;;;;42.38;7.25;;;8.50;99.90;;;;;;5055066;28;20057;-60
2021/12/30 00:52:53;;;;;;;52.33;7.00;;;8.50;99.90;;;;;;5054990;28;20151;-60
2021/12/30 00:55:19;;;;;;;45.55;7.40;;;8.50;99.90;;;;;;5057269;28;20037;-60
2021/12/30 00:57:45;;;;;;;51.00;6.95;;;8.40;99.90;;;;;;5068874;28;20049;-60
2021/12/30 01:00:14;;;;;;;50.63;8.25;;;8.40;99.90;;;;;;5059838;28;20033;-60
2021/12/30 01:02:40;;;;;;;44.15;6.75;;;8.40;99.90;;;;;;5067485;28;20068;-61
2021/12/30 01:05:07;;;;;;;39.83;6.47;;;8.30;99.90;;;;;;5056157;28;20422;-60
2021/12/30 01:07:32;;;;;;;44.38;7.07;;;8.30;99.90;;;;;;5055186;28;20055;-60
2021/12/30 01:09:59;;;;;;;52.75;8.27;;;8.30;99.90;;;;;;5053756;28;20045;-60
2021/12/30 01:12:25;;;;;;;54.05;7.07;;;8.20;99.90;;;;;;5061204;28;20049;-60
2021/12/30 01:14:51;;;;;;;45.65;7.32;;;8.20;99.90;;;;;;5062723;28;20390;-60
2021/12/30 01:17:24;;;;;;;58.20;7.82;;;8.10;99.90;;;;;;5061576;28;20032;-60
2021/12/30 01:19:51;;;;;;;41.83;7.00;;;8.10;99.90;;;;;;5057246;28;20044;-60
2021/12/30 01:22:23;;;;;;;51.40;7.70;;;8.10;99.90;;;;;;5068531;28;20547;-60
2021/12/30 01:24:49;;;;;;;52.83;7.22;;;8.10;99.90;;;;;;5057715;28;20140;-60
2021/12/30 01:27:15;;;;;;;52.10;7.63;;;8.10;99.90;;;;;;5055132;28;20461;-60
2021/12/30 01:29:41;;;;;;;47.65;7.82;;;8.20;99.90;;;;;;5058890;28;20060;-60
2021/12/30 01:32:07;;;;;;;50.75;7.88;;;8.20;99.90;;;;;;5056786;28;20489;-59
2021/12/30 01:34:33;;;;;;;49.55;7.85;;;8.10;99.90;;;;;;5056592;28;20048;-60
2021/12/30 01:37:01;;;;;;;57.70;7.82;;;8.20;99.90;;;;;;5059938;28;20076;-60
2021/12/30 01:39:27;;;;;;;;;;;8.20;99.90;;;;;;5059799;28;20071;-59
2021/12/30 01:41:53;;;;;;;45.90;7.93;;;8.20;99.90;;;;;;5057047;28;20014;-61
2021/12/30 01:44:19;;;;;;;46.42;8.63;;;8.20;99.90;;;;;;5059358;28;20112;-60
2021/12/30 01:46:45;;;;;;;42.53;7.00;;;8.20;99.90;;;;;;5068777;28;20477;-61
2021/12/30 01:49:12;;;;;;;46.97;7.55;;;8.10;99.90;;;;;;5057035;28;20044;-60
2021/12/30 01:51:39;;;;;;;54.85;7.93;;;8.10;99.90;;;;;;5057695;28;20052;-60
2021/12/30 01:54:05;;;;;;;44.85;7.97;;;8.20;99.90;;;;;;5056969;28;20135;-60
2021/12/30 01:56:31;;;;;;;49.25;8.50;;;8.20;99.90;;;;;;5054948;28;20131;-59
2021/12/30 01:58:58;;;;;;;54.13;8.55;;;8.30;99.90;;;;;;5060338;28;20490;-60
2021/12/30 02:01:24;;;;;;;57.00;9.05;;;8.40;99.90;;;;;;5054582;28;20037;-58
2021/12/30 02:03:50;;;;;;;49.05;8.27;;;8.50;99.90;;;;;;5053949;28;20510;-60
2021/12/30 02:06:16;;;;;;;56.60;9.45;;;8.50;99.90;;;;;;5057728;28;20047;-60
2021/12/30 02:08:42;;;;;;;62.45;11.32;;;8.60;99.90;;;;;;5055527;28;20083;-60
2021/12/30 02:11:07;;;;;;;70.68;12.10;;;8.60;99.90;;;;;;5053659;28;20041;-61
2021/12/30 02:13:33;;;;;;;52.17;12.23;;;8.70;99.90;;;;;;5055804;28;20044;-61
2021/12/30 02:16:02;;;;;;;67.03;14.57;;;8.80;99.90;;;;;;5055985;28;20055;-60
2021/12/30 02:18:29;;;;;;;62.85;14.02;;;8.80;99.90;;;;;;5055325;28;20045;-60
2021/12/30 02:21:00;;;;;;;64.75;15.07;;;8.90;99.90;;;;;;5055139;28;20090;-60
2021/12/30 02:23:32;;;;;;;63.72;13.90;;;9.00;99.90;;;;;;5055579;28;20404;-60
2021/12/30 02:26:03;;;;;;;61.35;14.98;;;9.00;99.90;;;;;;5054317;28;20048;-61
2021/12/30 02:28:31;;;;;;;61.13;15.73;;;9.10;99.90;;;;;;5055861;28;20049;-60
2021/12/30 02:30:59;;;;;;;60.70;14.93;;;9.10;99.90;;;;;;5056488;28;20041;-61
2021/12/30 02:33:25;;;;;;;52.53;15.27;;;9.10;99.90;;;;;;5059247;28;20094;-60
2021/12/30 02:35:52;;;;;;;67.15;16.70;;;9.20;99.90;;;;;;5057648;28;20041;-61
2021/12/30 02:38:19;;;;;;;69.05;17.10;;;9.20;99.90;;;;;;5062361;28;20067;-61
2021/12/30 02:40:53;;;;;;;73.90;17.63;;;9.20;99.90;;;;;;5065715;28;20049;-60
2021/12/30 02:43:21;;;;;;;62.67;18.23;;;9.20;99.90;;;;;;5057609;28;20045;-61
2021/12/30 02:45:48;;;;;;;67.68;18.40;;;9.20;99.90;;;;;;5059353;28;20056;-60
2021/12/30 02:48:21;;;;;;;61.65;17.60;;;9.30;99.90;;;;;;5062008;28;20032;-60
2021/12/30 02:50:50;;;;;;;58.15;16.67;;;9.30;99.90;;;;;;5056004;28;20032;-61
2021/12/30 02:53:16;;;;;;;63.13;16.05;;;9.30;99.90;;;;;;5055642;28;20055;-60
2021/12/30 02:55:43;;;;;;;64.47;16.15;;;9.30;99.90;;;;;;5055466;28;20049;-60
2021/12/30 02:58:09;;;;;;;68.23;15.63;;;9.30;99.90;;;;;;5055461;28;20083;-61
2021/12/30 03:00:35;;;;;;;62.25;15.55;;;9.30;99.90;;;;;;5057876;28;20040;-60
2021/12/30 03:03:01;;;;;;;56.05;15.00;;;9.30;99.90;;;;;;5053062;28;20041;-60
2021/12/30 03:05:27;;;;;;;60.45;15.27;;;9.30;99.90;;;;;;5053708;28;20071;-60
2021/12/30 03:07:53;;;;;;;55.38;15.82;;;9.40;99.90;;;;;;5053417;28;20032;-60
2021/12/30 03:10:22;;;;;;;60.78;15.70;;;9.40;99.90;;;;;;5058530;28;20080;-60
2021/12/30 03:12:56;;;;;;;62.75;16.17;;;9.40;99.90;;;;;;5054740;28;20120;-61
2021/12/30 03:15:23;;;;;;;58.70;15.40;;;9.40;99.90;;;;;;5053371;28;20073;-60
2021/12/30 03:17:49;;;;;;;65.22;16.15;;;9.40;99.90;;;;;;5054711;28;21340;-59
2021/12/30 03:20:16;;;;;;;55.15;15.07;;;9.40;99.90;;;;;;5055962;28;20044;-60
2021/12/30 03:22:43;;;;;;;59.78;16.17;;;9.40;99.90;;;;;;5055386;28;20063;-61
2021/12/30 03:25:11;;;;;;;64.63;16.55;;;9.40;99.90;;;;;;5055586;28;20571;-61
2021/12/30 03:27:37;;;;;;;;;;;9.50;99.90;;;;;;5056133;28;20150;-59
2021/12/30 03:30:06;;;;;;;57.05;15.70;;;9.50;99.90;;;;;;5056821;28;20602;-60
2021/12/30 03:32:33;;;;;;;56.60;15.63;;;9.50;99.90;;;;;;5055917;28;20048;-60
2021/12/30 03:34:59;;;;;;;54.80;16.83;;;9.50;99.90;;;;;;5054616;28;20051;-60
2021/12/30 03:37:25;;;;;;;60.42;16.98;;;9.50;99.90;;;;;;5059840;28;20033;-59
2021/12/30 03:39:51;;;;;;;55.42;17.60;;;9.50;99.90;;;;;;5055231;28;20072;-61
2021/12/30 03:42:17;;;;;;;69.72;18.35;;;9.50;99.90;;;;;;5053993;28;20045;-59
2021/12/30 03:44:45;;;;;;;53.85;17.63;;;9.50;99.90;;;;;;5059500;28;20121;-61
2021/12/30 03:47:15;;;;;;;55.35;18.50;;;9.50;99.90;;;;;;5060134;28;20458;-61
2021/12/30 03:49:44;;;;;;;58.42;18.15;;;9.50;99.90;;;;;;5058187;28;20040;-60
2021/12/30 03:52:11;;;;;;;61.78;17.83;;;9.50;99.90;;;;;;5060202;28;20049;-61
2021/12/30 03:54:37;;;;;;;58.45;19.33;;;9.50;99.90;;;;;;5063906;28;20482;-60
2021/12/30 03:57:03;;;;;;;68.65;18.33;;;9.50;99.90;;;;;;5056431;28;20044;-61
2021/12/30 03:59:29;;;;;;;65.10;18.27;;;9.50;99.90;;;;;;5055558;28;22059;-60
2021/12/30 04:01:54;;;;;;;55.22;17.58;;;9.50;99.90;;;;;;5055178;28;20037;-60
2021/12/30 04:04:20;;;;;;;63.33;18.52;;;9.60;99.90;;;;;;5055497;28;20077;-61
2021/12/30 04:06:45;;;;;;;73.15;19.20;;;9.60;99.90;;;;;;5055910;28;20032;-60
2021/12/30 04:09:12;;;;;;;67.20;18.35;;;9.60;99.90;;;;;;5055060;28;20044;-59
2021/12/30 04:11:37;;;;;;;64.65;19.38;;;9.60;99.90;;;;;;5055045;28;20110;-60
2021/12/30 04:14:03;;;;;;;65.47;18.30;;;9.60;99.90;;;;;;5055206;28;20081;-60
2021/12/30 04:16:29;;;;;;;65.65;19.30;;;9.70;99.90;;;;;;5052898;28;20052;-60
2021/12/30 04:18:55;;;;;;;63.97;19.25;;;9.70;99.90;;;;;;5054073;28;20037;-61
2021/12/30 04:21:22;;;;;;;67.85;18.85;;;9.70;99.90;;;;;;5057129;28;20586;-60
2021/12/30 04:23:48;;;;;;;62.35;18.67;;;9.70;99.90;;;;;;5057076;28;20037;-61
2021/12/30 04:26:13;;;;;;;68.30;19.48;;;9.70;99.90;;;;;;5056964;28;20508;-60
2021/12/30 04:28:39;;;;;;;62.70;17.98;;;9.80;99.90;;;;;;5054745;28;20147;-61
2021/12/30 04:31:05;;;;;;;61.53;18.80;;;9.80;99.90;;;;;;5055667;28;20056;-61
2021/12/30 04:33:31;;;;;;;69.00;19.63;;;9.80;99.90;;;;;;5054886;28;20040;-61
2021/12/30 04:35:57;;;;;;;71.80;21.63;;;9.90;99.90;;;;;;5052450;28;20029;-60
2021/12/30 04:38:28;;;;;;;74.72;20.38;;;9.90;99.90;;;;;;5065283;28;20052;-61
2021/12/30 04:40:54;;;;;;;72.53;19.45;;;10.00;99.90;;;;;;5054411;28;20036;-61
2021/12/30 04:43:19;;;;;;;77.72;19.88;;;10.00;99.90;;;;;;5053705;28;20106;-61
2021/12/30 04:45:47;;;;;;;77.18;19.27;;;10.00;99.90;;;;;;5056767;28;20099;-61
2021/12/30 04:48:14;;;;;;;73.03;18.85;;;10.00;99.90;;;;;;5056533;28;20049;-61
2021/12/30 04:50:40;;;;;;;61.42;18.83;;;10.00;99.90;;;;;;5059073;28;20747;-61
2021/12/30 04:53:05;;;;;;;69.63;20.85;;;10.10;99.90;;;;;;5059219;28;20127;-60
2021/12/30 04:55:31;;;;;;;71.35;19.58;;;10.10;99.90;;;;;;5055427;28;20045;-61
2021/12/30 04:57:57;;;;;;;65.47;19.52;;;10.10;99.90;;;;;;5062737;28;20482;-61
2021/12/30 05:00:22;;;;;;;63.92;19.73;;;10.10;99.90;;;;;;5055940;28;20055;-61
2021/12/30 05:03:09;;;;;;;76.13;20.00;;;10.20;99.90;;;;;;5063339;28;20040;-61
2021/12/30 05:05:46;;;;;;;75.93;20.60;;;10.20;99.90;;;;;;5060822;28;20045;-61
2021/12/30 05:08:14;;;;;;;59.65;19.48;;;10.20;99.90;;;;;;5057998;28;20425;-61
2021/12/30 05:10:40;;;;;;;63.33;18.88;;;10.20;99.90;;;;;;5058107;28;20076;-61
2021/12/30 05:13:07;;;;;;;86.32;20.52;;;10.30;99.90;;;;;;5057820;28;20075;-61
2021/12/30 05:15:34;;;;;;;62.47;19.10;;;10.30;99.90;;;;;;5055034;28;20462;-61
2021/12/30 05:17:59;;;;;;;66.47;20.63;;;10.30;99.90;;;;;;5059490;28;20044;-61
2021/12/30 05:20:25;;;;;;;66.72;20.63;;;10.30;99.90;;;;;;5065808;28;20415;-61
2021/12/30 05:22:51;;;;;;;83.43;21.77;;;10.40;99.90;;;;;;5063194;28;20040;-61
2021/12/30 05:25:18;;;;;;;78.40;21.40;;;10.40;99.90;;;;;;5070404;28;20052;-60
2021/12/30 05:27:44;;;;;;;63.10;21.30;;;10.40;99.90;;;;;;5062713;28;20064;-60
2021/12/30 05:30:12;;;;;;;66.43;21.70;;;10.40;99.90;;;;;;5056581;28;20059;-60
2021/12/30 05:32:38;;;;;;;71.70;21.73;;;10.40;99.90;;;;;;5057565;28;20045;-61
2021/12/30 05:35:06;;;;;;;101.45;22.95;;;10.50;99.90;;;;;;5061197;28;20050;-61
2021/12/30 05:37:31;;;;;;;62.92;20.75;;;10.50;99.90;;;;;;5059067;28;20048;-60
2021/12/30 05:39:57;;;;;;;90.88;23.10;;;10.50;99.90;;;;;;5055344;28;20428;-60
2021/12/30 05:42:23;;;;;;;63.33;20.95;;;10.50;99.90;;;;;;5054593;28;20045;-61
2021/12/30 05:44:51;;;;;;;69.93;21.52;;;10.50;99.90;;;;;;5058325;28;20052;-60
2021/12/30 05:47:16;;;;;;;66.63;21.25;;;10.60;99.90;;;;;;5053754;28;20072;-61
2021/12/30 05:49:42;;;;;;;82.53;21.73;;;10.60;99.90;;;;;;5060067;28;20122;-60
2021/12/30 05:52:08;;;;;;;92.22;22.08;;;10.70;99.90;;;;;;5070413;28;20043;-60
2021/12/30 05:54:33;;;;;;;87.55;22.63;;;10.70;99.90;;;;;;5057729;28;20048;-60
2021/12/30 05:56:59;;;;;;;96.80;21.92;;;10.70;99.90;;;;;;5060415;28;20043;-61
2021/12/30 05:59:24;;;;;;;67.15;20.20;;;10.70;99.90;;;;;;5064494;28;20156;-61
2021/12/30 06:01:50;;;;;;;75.68;21.80;;;10.70;99.90;;;;;;5062691;28;20394;-61
2021/12/30 06:04:15;;;;;;;74.88;21.42;;;10.70;99.90;;;;;;5060517;28;20079;-61
2021/12/30 06:06:41;;;;;;;93.50;22.65;;;10.80;99.90;;;;;;5057507;28;20132;-58
2021/12/30 06:09:07;;;;;;;70.05;21.13;;;10.80;99.90;;;;;;5059472;28;20037;-61
2021/12/30 06:11:32;;;;;;;85.60;21.33;;;10.80;99.90;;;;;;5070146;28;20076;-61
2021/12/30 06:13:58;;;;;;;78.43;20.75;;;10.80;99.90;;;;;;5056483;28;20053;-60
2021/12/30 06:16:23;;;;;;;81.78;21.45;;;10.80;99.90;;;;;;5053316;28;20044;-60
2021/12/30 06:18:49;;;;;;;70.00;21.20;;;10.90;99.90;;;;;;5056719;28;20052;-60
2021/12/30 06:21:14;;;;;;;66.65;20.25;;;10.90;99.90;;;;;;5056923;28;20102;-59
2021/12/30 06:23:40;;;;;;;73.93;21.33;;;10.90;99.90;;;;;;5059861;28;20044;-60
2021/12/30 06:26:05;;;;;;;71.55;20.80;;;10.90;99.90;;;;;;5055420;28;20071;-58
2021/12/30 06:28:31;;;;;;;71.75;20.83;;;10.90;99.90;;;;;;5058911;28;20040;-60
2021/12/30 06:30:57;;;;;;;59.70;20.35;;;11.00;99.90;;;;;;5057863;28;20044;-58
2021/12/30 06:33:22;;;;;;;60.65;19.75;;;11.00;99.90;;;;;;5056849;28;20079;-58
2021/12/30 06:35:48;;;;;;;76.75;21.08;;;11.00;99.90;;;;;;5060346;28;20037;-61
2021/12/30 06:38:13;;;;;;;89.90;21.67;;;11.00;99.90;;;;;;5059263;28;20044;-60
2021/12/30 06:40:39;;;;;;;85.10;21.08;;;11.00;99.90;;;;;;5055712;28;20097;-60
2021/12/30 06:43:04;;;;;;;63.30;20.33;;;11.00;99.90;;;;;;5057460;28;20044;-60
2021/12/30 06:45:30;;;;;;;67.32;20.33;;;11.10;99.90;;;;;;5061283;28;20084;-60
2021/12/30 06:47:55;;;;;;;74.55;20.83;;;11.10;99.90;;;;;;5055164;28;20072;-60
2021/12/30 06:50:24;;;;;;;68.65;20.75;;;11.10;99.90;;;;;;5058728;28;20406;-60
2021/12/30 06:52:50;;;;;;;65.63;20.23;;;11.10;99.90;;;;;;5054934;28;20057;-60
2021/12/30 06:55:16;;;;;;;54.40;19.58;;;11.10;99.90;;;;;;5058659;28;20053;-60
2021/12/30 06:57:42;;;;;;;70.35;20.13;;;11.10;99.90;;;;;;5055443;28;20114;-60
2021/12/30 07:00:09;;;;;;;73.68;21.25;;;11.10;99.90;;;;;;5057847;28;20425;-60
2021/12/30 07:02:35;;;;;;;65.07;20.13;;;11.20;99.90;;;;;;5056360;28;20087;-60
2021/12/30 07:05:02;;;;;;;63.72;18.80;;;11.20;99.90;;;;;;5060458;28;20053;-60
2021/12/30 07:07:28;;;;;;;59.92;18.58;;;11.20;99.90;;;;;;5064965;28;20051;-60
2021/12/30 07:09:53;;;;;;;51.88;18.58;;;11.20;99.90;;;;;;5058102;28;21321;-60
2021/12/30 07:12:19;;;;;;;61.15;18.83;;;11.20;99.90;;;;;;5068043;28;20056;-60
2021/12/30 07:14:44;;;;;;;69.28;18.52;;;11.20;99.90;;;;;;5066421;28;20119;-60
2021/12/30 07:17:10;;;;;;;51.75;16.45;;;11.20;99.90;;;;;;5069676;28;20379;-60
2021/12/30 07:19:36;;;;;;;59.60;17.77;;;11.20;99.90;;;;;;5066073;28;20032;-60
2021/12/30 07:22:02;;;;;;;50.42;15.70;;;11.20;99.90;;;;;;5067936;28;20041;-61
2021/12/30 07:24:28;;;;;;;45.25;15.43;;;11.30;99.90;;;;;;5068807;28;20093;-60
2021/12/30 07:26:53;;;;;;;31.92;12.88;;;11.30;99.90;;;;;;5055690;28;20052;-59
2021/12/30 07:29:19;;;;;;;42.97;12.80;;;11.30;99.90;;;;;;5057682;28;20075;-60
2021/12/30 07:31:45;;;;;;;40.97;12.60;;;11.30;99.90;;;;;;5055811;28;20383;-60
2021/12/30 07:34:10;;;;;;;45.25;11.80;;;11.30;99.90;;;;;;5055704;28;20147;-59
2021/12/30 07:36:36;;;;;;;26.60;9.55;;;11.30;99.90;;;;;;5054919;28;20041;-60
2021/12/30 07:39:03;;;;;;;29.50;9.18;;;11.30;99.90;;;;;;5053197;28;20036;-57
2021/12/30 07:41:28;;;;;;;20.75;7.60;;;11.30;99.90;;;;;;5055025;28;20162;-59
2021/12/30 07:43:54;;;;;;;20.90;7.18;;;11.30;99.90;;;;;;5056248;28;20143;-61
2021/12/30 07:46:20;;;;;;;15.15;6.50;;;11.30;99.90;;;;;;5058469;28;20041;-59
2021/12/30 07:48:45;;;;;;;10.48;5.32;;;11.30;99.90;;;;;;5051713;28;20071;-60
2021/12/30 07:51:11;;;;;;;12.82;5.53;;;11.30;99.90;;;;;;5052501;28;20071;-60
2021/12/30 07:53:37;;;;;;;11.48;5.22;;;11.30;99.90;;;;;;5054885;28;20056;-60
2021/12/30 07:56:03;;;;;;;8.52;4.70;;;11.40;99.90;;;;;;5055541;28;20085;-60
2021/12/30 07:58:30;;;;;;;11.93;4.90;;;;;;;;;;5057878;28;20056;-60
2021/12/30 08:00:56;;;;;;;10.85;4.55;;;;;;;;;;5054775;28;20041;-60
2021/12/30 08:03:21;;;;;;;7.63;4.25;;;11.30;99.90;;;;;;5053004;28;20056;-60
2021/12/30 08:05:48;;;;;;;9.13;4.25;;;11.50;99.90;;;;;;5053599;28;20488;-58
2021/12/30 08:08:14;;;;;;;9.35;4.32;;;11.40;99.90;;;;;;5051795;28;20503;-60
2021/12/30 08:10:39;;;;;;;10.85;4.78;;;11.40;99.90;;;;;;5051878;28;20062;-58
2021/12/30 08:13:05;;;;;;;9.23;4.97;;;11.40;99.90;;;;;;5052598;28;20053;-58
2021/12/30 08:15:30;;;;;;;12.25;5.30;;;11.50;99.90;;;;;;5053548;28;20471;-58
2021/12/30 08:17:56;;;;;;;14.63;5.47;;;11.50;99.90;;;;;;5053486;28;20044;-58
2021/12/30 08:20:22;;;;;;;8.73;5.18;;;11.50;99.90;;;;;;5052817;28;20495;-61
2021/12/30 08:22:50;;;;;;;12.30;7.18;;;11.50;99.90;;;;;;5061534;28;20044;-60
2021/12/30 08:25:16;;;;;;;9.70;6.30;;;11.50;99.90;;;;;;5056028;28;20432;-60
2021/12/30 08:27:42;;;;;;;15.13;7.43;;;11.60;99.90;;;;;;5064489;28;20055;-59
2021/12/30 08:30:12;;;;;;;18.60;8.30;;;11.50;99.90;;;;;;5061978;28;20080;-60
2021/12/30 08:32:38;;;;;;;17.88;8.55;;;11.60;99.90;;;;;;5064884;28;20056;-59
2021/12/30 08:35:04;;;;;;;15.27;8.73;;;11.60;99.90;;;;;;5067295;28;20124;-60
2021/12/30 08:37:29;;;;;;;19.75;9.65;;;11.60;99.90;;;;;;5058941;28;20051;-60
2021/12/30 08:39:55;;;;;;;21.90;11.38;;;11.60;99.90;;;;;;5063182;28;20033;-60
2021/12/30 08:42:24;;;;;;;22.63;12.07;;;11.60;99.90;;;;;;5070879;28;20056;-60
2021/12/30 08:44:51;;;;;;;29.38;13.95;;;11.70;99.90;;;;;;5072091;28;20093;-60
2021/12/30 08:47:17;;;;;;;30.88;14.57;;;11.70;99.90;;;;;;5069561;28;20103;-58
2021/12/30 08:49:46;;;;;;;32.05;15.75;;;11.70;99.90;;;;;;5066570;28;20506;-60
2021/12/30 08:52:18;;;;;;;32.28;15.73;;;11.80;99.90;;;;;;5068148;28;20541;-60
2021/12/30 08:54:44;;;;;;;36.65;16.83;;;11.80;99.90;;;;;;5068737;28;20037;-60
2021/12/30 08:57:11;;;;;;;33.03;16.65;;;11.80;99.90;;;;;;5065072;28;20426;-60
2021/12/30 08:59:37;;;;;;;28.83;15.43;;;11.90;99.90;;;;;;5071938;28;20040;-60
2021/12/30 09:02:05;;;;;;;28.30;15.10;;;11.90;99.90;;;;;;5074614;28;20059;-60
2021/12/30 09:04:31;;;;;;;31.38;15.38;;;12.00;99.90;;;;;;5064143;28;20041;-60
2021/12/30 09:06:57;;;;;;;25.27;14.20;;;12.00;99.90;;;;;;5070819;28;20122;-60
2021/12/30 09:09:23;;;;;;;26.80;14.07;;;12.00;99.90;;;;;;5059044;28;20044;-60
2021/12/30 09:11:49;;;;;;;25.60;13.60;;;12.00;99.90;;;;;;5072908;28;20383;-60
2021/12/30 09:14:15;;;;;;;23.33;13.23;;;12.00;99.90;;;;;;5074941;28;20102;-60
2021/12/30 09:16:41;;;;;;;19.80;12.07;;;12.00;99.90;;;;;;5070877;28;20040;-61
2021/12/30 09:19:07;;;;;;;22.63;11.43;;;12.00;99.90;;;;;;5061282;28;20049;-60
2021/12/30 09:21:37;;;;;;;19.27;10.18;;;12.00;99.90;;;;;;5068153;28;20037;-60
2021/12/30 09:24:03;;;;;;;18.30;10.77;;;12.00;99.90;;;;;;5061064;28;20047;-60
2021/12/30 09:26:29;;;;;;;14.25;9.85;;;12.00;99.90;;;;;;5063452;28;20123;-60
2021/12/30 09:28:54;;;;;;;18.30;10.75;;;12.00;99.90;;;;;;5070628;28;20041;-60
2021/12/30 09:31:20;;;;;;;19.40;11.02;;;12.10;99.90;;;;;;5063615;28;20132;-60
2021/12/30 09:33:46;;;;;;;18.17;10.52;;;12.10;99.90;;;;;;5058983;28;20384;-60
2021/12/30 09:36:11;;;;;;;17.38;10.43;;;12.00;99.90;;;;;;5064932;28;20041;-60
2021/12/30 09:38:37;;;;;;;18.52;10.43;;;12.00;99.90;;;;;;5061186;28;20418;-60
2021/12/30 09:41:03;;;;;;;19.38;11.25;;;12.10;99.90;;;;;;5069372;28;20123;-61
2021/12/30 09:43:29;;;;;;;18.67;11.48;;;12.10;99.90;;;;;;5066135;28;20075;-60
2021/12/30 09:45:54;;;;;;;20.00;11.77;;;12.10;99.90;;;;;;5062806;28;20121;-60
2021/12/30 09:48:20;;;;;;;20.90;11.93;;;12.10;99.90;;;;;;5067784;28;20128;-60
2021/12/30 09:50:52;;;;;;;17.33;10.90;;;12.20;99.90;;;;;;5063163;28;20078;-61
2021/12/30 09:53:21;;;;;;;22.85;11.70;;;12.10;99.90;;;;;;5054005;28;20049;-58
2021/12/30 09:55:46;;;;;;;21.25;12.05;;;12.20;99.90;;;;;;5054902;28;20053;-60
2021/12/30 09:58:12;;;;;;;19.13;11.15;;;12.20;99.90;;;;;;5064687;28;20045;-60
2021/12/30 10:00:39;;;;;;;21.20;11.25;;;12.20;99.90;;;;;;5073504;28;20056;-59
2021/12/30 10:03:04;;;;;;;20.52;11.13;;;12.20;99.90;;;;;;5060923;28;20037;-60
2021/12/30 10:05:34;;;;;;;21.75;10.38;;;12.20;99.90;;;;;;5057003;28;20057;-60
2021/12/30 10:08:19;;;;;;;21.08;10.57;;;12.30;99.90;;;;;;5053518;28;20049;-60
2021/12/30 10:10:49;;;;;;;23.27;10.55;;;12.30;99.90;;;;;;5056012;28;20106;-60
2021/12/30 10:13:30;;;;;;;19.02;9.52;;;12.30;99.90;;;;;;5071808;28;20048;-59
2021/12/30 10:15:58;;;;;;;13.38;8.05;;;12.30;99.90;;;;;;5072425;28;20486;-60
2021/12/30 10:18:25;;;;;;;20.10;8.82;;;12.30;99.90;;;;;;5068890;28;20399;-60
2021/12/30 10:20:52;;;;;;;18.58;8.18;;;12.30;99.90;;;;;;5065573;28;20181;-59
2021/12/30 10:23:22;;;;;;;16.73;7.18;;;12.30;99.90;;;;;;5063675;28;20569;-59
2021/12/30 10:25:53;;;;;;;18.10;7.63;;;12.30;99.90;;;;;;5070450;28;20036;-60
2021/12/30 10:28:35;;;;;;;18.45;7.13;;;12.30;99.90;;;;;;5071925;28;20127;-60
2021/12/30 10:31:13;;;;;;;19.05;6.72;;;12.40;99.90;;;;;;5063307;28;20130;-59
2021/12/30 10:33:59;;;;;;;16.92;6.22;;;12.40;99.90;;;;;;5073079;28;20041;-60
2021/12/30 10:36:41;;;;;;;13.55;5.97;;;12.40;99.90;;;;;;5071235;28;20052;-60
2021/12/30 10:39:25;;;;;;;11.80;5.68;;;12.40;99.90;;;;;;5068633;28;20037;-57
2021/12/30 10:42:16;;;;;;;17.10;7.45;;;12.40;99.90;;;;;;5066251;28;20044;-60
2021/12/30 10:44:58;;;;;;;22.95;6.38;;;12.50;99.90;;;;;;5059935;28;20523;-60
2021/12/30 10:47:29;;;;;;;17.80;6.65;;;12.50;99.90;;;;;;5064753;28;20131;-60
2021/12/30 10:50:09;;;;;;;19.45;7.13;;;12.50;99.90;;;;;;5065219;28;20076;-60
2021/12/30 10:52:44;;;;;;;21.73;6.05;;;12.50;99.90;;;;;;5072821;28;20044;-60
2021/12/30 10:55:12;;;;;;;19.27;6.28;;;12.60;99.90;;;;;;5070131;28;20483;-60
2021/12/30 10:57:38;;;;;;;21.25;6.03;;;12.50;99.90;;;;;;5062070;28;20040;-60
2021/12/30 11:00:06;;;;;;;26.65;7.38;;;12.60;99.90;;;;;;5072767;28;20040;-59
2021/12/30 11:02:33;;;;;;;22.30;6.25;;;12.60;99.90;;;;;;5072459;28;20109;-60
2021/12/30 11:05:03;;;;;;;18.00;5.80;;;12.60;99.90;;;;;;5069418;28;20049;-60
2021/12/30 11:07:47;;;;;;;23.33;6.60;;;12.60;99.90;;;;;;5053158;28;20084;-59
2021/12/30 11:10:15;;;;;;;22.05;5.85;;;12.60;99.90;;;;;;5056201;28;20095;-59
2021/12/30 11:12:45;;;;;;;20.10;6.15;;;12.60;99.90;;;;;;5065306;28;20052;-60
2021/12/30 11:15:30;;;;;;;21.67;6.00;;;12.60;99.90;;;;;;5052453;28;20581;-60
2021/12/30 11:18:20;;;;;;;27.60;6.70;;;12.60;99.90;;;;;;5064893;28;20123;-60
2021/12/30 11:20:47;;;;;;;21.83;6.03;;;12.70;99.90;;;;;;5069984;28;20498;-60
2021/12/30 11:23:15;;;;;;;23.52;6.45;;;12.70;99.90;;;;;;5070692;28;20053;-60
2021/12/30 11:25:42;;;;;;;25.33;6.05;;;12.60;99.90;;;;;;5064291;28;20087;-60
2021/12/30 11:28:07;;;;;;;24.83;7.07;;;12.70;99.90;;;;;;5052924;28;20047;-61
2021/12/30 11:30:33;;;;;;;21.00;5.70;;;12.70;99.90;;;;;;5055381;28;20036;-61
2021/12/30 11:32:59;;;;;;;29.17;7.07;;;12.70;99.90;;;;;;5063296;28;20199;-61
2021/12/30 11:35:27;;;;;;;28.23;6.85;;;12.70;99.90;;;;;;5071599;28;20121;-60
2021/12/30 11:37:53;;;;;;;25.23;6.78;;;12.70;99.90;;;;;;5061555;28;20049;-60
2021/12/30 11:40:23;;;;;;;29.70;7.05;;;12.70;99.90;;;;;;5060759;28;20072;-60
2021/12/30 11:42:53;;;;;;;20.10;5.93;;;12.70;99.90;;;;;;5071924;28;20044;-60
2021/12/30 11:45:21;;;;;;;30.48;7.57;;;12.70;99.90;;;;;;5053448;28;20355;-61
2021/12/30 11:47:47;;;;;;;25.05;7.03;;;12.70;99.90;;;;;;5061745;28;20048;-60
2021/12/30 11:50:17;;;;;;;23.90;6.70;;;12.70;99.90;;;;;;5059125;28;20098;-60
2021/12/30 11:53:00;;;;;;;24.02;6.75;;;12.70;99.90;;;;;;5063535;28;20094;-60
2021/12/30 11:55:50;;;;;;;22.83;6.55;;;12.70;99.90;;;;;;5070305;28;20040;-60
2021/12/30 11:58:27;;;;;;;26.02;5.88;;;12.70;99.90;;;;;;5065068;28;20179;-61
2021/12/30 12:00:57;;;;;;;21.92;6.47;;;12.70;99.90;;;;;;5057044;28;20431;-59
2021/12/30 12:03:43;;;;;;;24.40;5.80;;;12.60;99.90;;;;;;5058639;28;20320;-59
2021/12/30 12:06:24;;;;;;;23.15;6.60;;;12.60;99.90;;;;;;5056919;28;20131;-60
2021/12/30 12:08:51;;;;;;;25.02;6.15;;;12.60;99.90;;;;;;5066010;28;20102;-60
2021/12/30 12:11:20;;;;;;;30.27;7.20;;;12.60;99.90;;;;;;5051769;28;20092;-60
2021/12/30 12:13:47;;;;;;;21.73;6.57;;;12.60;99.90;;;;;;5056463;28;20045;-60
2021/12/30 12:16:14;;;;;;;28.65;6.65;;;12.60;99.90;;;;;;5057005;28;20072;-60
2021/12/30 12:19:06;;;;;;;21.67;6.72;;;12.60;99.90;;;;;;5053253;28;20146;-60
2021/12/30 12:21:43;;;;;;;24.27;6.90;;;12.60;99.90;;;;;;5061918;28;20075;-60
2021/12/30 12:24:21;;;;;;;27.90;6.57;;;12.60;99.90;;;;;;5061169;28;20422;-60
2021/12/30 12:26:49;;;;;;;30.10;6.57;;;12.60;99.90;;;;;;5071397;28;20052;-60
2021/12/30 12:29:28;;;;;;;20.92;6.07;;;12.60;99.90;;;;;;5070868;28;20048;-60
2021/12/30 12:31:56;;;;;;;24.67;6.90;;;12.60;99.90;;;;;;5064864;28;20449;-60
2021/12/30 12:34:37;;;;;;;24.98;7.43;;;12.60;99.90;;;;;;5056507;28;20040;-60
2021/12/30 12:37:04;;;;;;;24.30;7.15;;;12.60;99.90;;;;;;5066976;28;20441;-60
2021/12/30 12:39:38;;;;;;;25.40;7.53;;;12.50;99.90;;;;;;5058181;28;20066;-60